<?xml version="1.0" encoding="UTF-8" standalone="no" ?>
<gpx xmlns="http://www.topografix.com/GPX/1/1" xmlns:xsi="http://www.w3.org/2001/XMLSchema-instance" xsi:schemaLocation="http://www.topografix.com/GPX/1/1 http://www.topografix.com/GPX/1/1/gpx.xsd" version="1.1" creator="VisuGPX - https://www.visugpx.com">
  <metadata>
    <name>VacancesDricouZoe</name>
  </metadata>
  <trk>
    <name><![CDATA[Journal actif: 2021-07-04 10:29]]></name>
    <trkseg>
      <trkpt lat="44.1046" lon="-0.5494">
        <ele>78.48</ele>
        <time>2021-07-04T12:29:15Z</time>
      </trkpt>
      <trkpt lat="44.10459" lon="-0.54953">
        <ele>78.97</ele>
        <time>2021-07-04T12:29:32Z</time>
      </trkpt>
      <trkpt lat="44.10458" lon="-0.54955">
        <ele>78.97</ele>
        <time>2021-07-04T12:29:35Z</time>
      </trkpt>
      <trkpt lat="44.1042" lon="-0.54965">
        <ele>78.97</ele>
        <time>2021-07-04T12:29:47Z</time>
      </trkpt>
      <trkpt lat="44.10362" lon="-0.54971">
        <ele>78</ele>
        <time>2021-07-04T12:29:58Z</time>
      </trkpt>
      <trkpt lat="44.10274" lon="-0.54979">
        <ele>77.04</ele>
        <time>2021-07-04T12:30:14Z</time>
      </trkpt>
      <trkpt lat="44.10258" lon="-0.54981">
        <ele>76.56</ele>
        <time>2021-07-04T12:30:21Z</time>
      </trkpt>
      <trkpt lat="44.10256" lon="-0.54981">
        <ele>76.56</ele>
        <time>2021-07-04T12:30:22Z</time>
      </trkpt>
      <trkpt lat="44.10256" lon="-0.5498">
        <ele>76.56</ele>
        <time>2021-07-04T12:30:23Z</time>
      </trkpt>
      <trkpt lat="44.10257" lon="-0.54978">
        <ele>76.56</ele>
        <time>2021-07-04T12:30:24Z</time>
      </trkpt>
      <trkpt lat="44.10259" lon="-0.54976">
        <ele>76.56</ele>
        <time>2021-07-04T12:30:25Z</time>
      </trkpt>
      <trkpt lat="44.1026" lon="-0.54973">
        <ele>76.56</ele>
        <time>2021-07-04T12:30:26Z</time>
      </trkpt>
      <trkpt lat="44.10262" lon="-0.5497">
        <ele>76.56</ele>
        <time>2021-07-04T12:30:27Z</time>
      </trkpt>
      <trkpt lat="44.10265" lon="-0.54966">
        <ele>76.56</ele>
        <time>2021-07-04T12:30:28Z</time>
      </trkpt>
      <trkpt lat="44.10267" lon="-0.54962">
        <ele>76.56</ele>
        <time>2021-07-04T12:30:29Z</time>
      </trkpt>
      <trkpt lat="44.10269" lon="-0.54958">
        <ele>76.56</ele>
        <time>2021-07-04T12:30:30Z</time>
      </trkpt>
      <trkpt lat="44.10278" lon="-0.54943">
        <ele>76.56</ele>
        <time>2021-07-04T12:30:41Z</time>
      </trkpt>
    </trkseg>
  </trk>
</gpx>